Time;durP1;ratioP1;P1;durP2;ratioP2;P2;SDS_P1;SDS_P2;PMS_P1;PMS_P2;Temp;Humidity;BMP_temperature;BMP_pressure;BME280_temperature;BME280_humidity;BME280_pressure;Samples;Min_cycle;Max_cycle;Signal;HPM_P1;HPM_P2
2022/04/03 08:28:28;;;;;;;;;13.25;11.75;;;;;4.39;62.78;102146.13;5027923;28;45444;-87
2022/04/03 08:30:54;;;;;;;;;7.25;7.25;;;;;4.63;61.61;102140.69;5013227;28;45235;-84
2022/04/03 08:33:20;;;;;;;;;7.25;7.25;;;;;4.89;61.04;102146.34;5012392;28;45310;-81
2022/04/03 08:35:46;;;;;;;;;9.25;7.00;;;;;5.20;58.41;102139.72;5008572;28;45349;-78
2022/04/03 08:38:13;;;;;;;;;6.50;5.00;;;;;5.37;59.02;102141.19;5024568;28;46185;-78
2022/04/03 08:40:38;;;;;;;;;7.75;7.00;;;;;5.54;58.34;102145.22;5028611;28;45871;-77
2022/04/03 08:43:05;;;;;;;;;11.25;8.25;;;;;5.73;58.10;102144.22;5011282;28;45319;-79
2022/04/03 08:45:31;;;;;;;;;3.75;3.75;;;;;5.90;55.20;102145.69;5011497;28;45309;-75
2022/04/03 08:47:59;;;;;;;;;3.25;3.00;;;;;6.03;53.17;102146.00;5011082;28;45460;-76
2022/04/03 08:50:34;;;;;;;;;11.25;7.00;;;;;6.16;52.15;102142.78;5009902;28;46031;-77
2022/04/03 08:53:02;;;;;;;;;7.75;6.00;;;;;6.31;51.49;102137.13;5018386;28;45598;-75
2022/04/03 08:55:29;;;;;;;;;6.00;4.25;;;;;6.40;50.12;102137.91;5010598;28;45347;-77
2022/04/03 08:57:55;;;;;;;;;5.50;5.50;;;;;6.45;51.18;102136.59;5009815;28;47025;-76
2022/04/03 09:00:21;;;;;;;;;9.25;5.50;;;;;6.53;50.33;102134.66;5011381;28;45386;-77
2022/04/03 09:02:47;;;;;;;;;6.75;6.75;;;;;6.67;47.52;102130.63;5013121;28;45845;-76
2022/04/03 09:05:14;;;;;;;;;9.00;6.00;;;;;6.71;47.18;102144.66;5011569;28;45520;-75
2022/04/03 09:07:41;;;;;;;;;3.25;3.25;;;;;6.78;45.67;102139.25;5010372;28;46339;-77
2022/04/03 09:10:09;;;;;;;;;5.00;4.00;;;;;6.85;44.02;102130.34;5009405;28;45383;-77
2022/04/03 09:12:49;;;;;;;;;10.00;10.00;;;;;6.83;44.54;102137.94;5011598;28;45523;-77
2022/04/03 09:15:17;;;;;;;;;7.50;7.25;;;;;6.86;44.29;102139.88;5010976;28;45501;-77
2022/04/03 09:17:46;;;;;;;;;4.75;3.00;;;;;6.91;43.76;102141.13;5010891;28;47984;-82
2022/04/03 09:20:17;;;;;;;;;3.50;3.50;;;;;6.96;43.74;102147.56;5011729;28;45918;-79
2022/04/03 09:22:48;;;;;;;;;6.75;6.75;;;;;7.05;43.18;102142.25;5009913;28;45372;-79
2022/04/03 09:25:19;;;;;;;;;4.75;3.75;;;;;7.07;43.28;102136.44;5012341;28;45525;-78
2022/04/03 09:27:50;;;;;;;;;6.50;5.25;;;;;7.12;43.07;102141.97;5041871;28;45569;-79
2022/04/03 09:30:18;;;;;;;;;10.50;6.00;;;;;7.12;42.97;102134.25;5028313;28;45791;-78
2022/04/03 09:32:56;;;;;;;;;3.00;3.00;;;;;7.13;42.56;102144.66;5013440;28;45394;-78
2022/04/03 09:35:26;;;;;;;;;4.50;4.50;;;;;7.17;42.97;102139.78;5029122;28;45472;-78
2022/04/03 09:38:27;;;;;;;;;6.75;6.00;;;;;7.21;42.13;102140.13;5027899;28;46148;-77
2022/04/03 09:40:53;;;;;;;;;11.75;8.00;;;;;7.22;42.60;102139.38;4974560;28;45491;-78
2022/04/03 09:43:25;;;;;;;;;6.00;6.00;;;;;7.29;41.97;102135.56;5016939;28;45327;-78
2022/04/03 09:45:54;;;;;;;;;6.50;6.00;;;;;7.33;42.21;102142.78;5014435;28;45570;-77
2022/04/03 09:48:20;;;;;;;;;3.25;3.00;;;;;7.38;41.53;102141.47;5016494;28;46069;-78
2022/04/03 09:51:08;;;;;;;;;7.00;4.00;;;;;7.41;40.97;102135.66;5016761;28;45324;-76
2022/04/03 09:53:47;;;;;;;;;7.00;6.00;;;;;7.48;41.31;102140.50;5016713;28;45465;-76
2022/04/03 09:56:31;;;;;;;;;3.75;3.75;;;;;7.49;41.25;102136.28;5017739;28;45409;-77
2022/04/03 09:58:59;;;;;;;;;7.50;6.00;;;;;7.52;41.06;102133.91;5016965;28;45957;-77
2022/04/03 10:01:30;;;;;;;;;4.25;2.50;;;;;7.59;40.83;102134.53;5015239;28;45543;-76
2022/04/03 10:03:58;;;;;;;;;6.00;5.00;;;;;7.64;41.71;102132.31;5016079;28;45514;-78
2022/04/03 10:06:24;;;;;;;;;4.00;4.00;;;;;7.69;41.45;102130.09;5017504;28;45327;-79
2022/04/03 10:08:50;;;;;;;;;2.75;2.00;;;;;7.75;41.10;102134.03;5017430;28;45539;-76
2022/04/03 10:11:16;;;;;;;;;4.00;2.75;;;;;7.82;40.72;102117.38;4999522;28;45619;-78
2022/04/03 10:13:43;;;;;;;;;6.75;6.50;;;;;7.94;41.38;102138.03;5017462;28;45806;-76
2022/04/03 10:16:10;;;;;;;;;16.00;14.75;;;;;8.04;41.03;102125.06;5016509;28;45406;-75
2022/04/03 10:18:36;;;;;;;;;4.00;3.50;;;;;8.14;40.76;102121.50;5007931;28;45876;-77
2022/04/03 10:21:04;;;;;;;;;3.00;3.00;;;;;8.18;41.32;102126.13;5015233;28;46003;-76
2022/04/03 10:23:31;;;;;;;;;3.25;3.00;;;;;8.35;40.08;102119.66;4998324;28;45642;-79
2022/04/03 10:25:58;;;;;;;;;0.00;0.00;;;;;8.48;39.21;102128.31;5034531;28;45654;-77
2022/04/03 10:28:25;;;;;;;;;3.50;2.25;;;;;8.44;39.74;102122.00;4987114;28;48146;-79
2022/04/03 10:31:07;;;;;;;;;8.75;6.25;;;;;8.45;39.69;102107.44;5020514;28;45475;-76
2022/04/03 10:33:38;;;;;;;;;23.00;19.50;;;;;8.50;40.21;102106.13;5015992;28;45243;-77
2022/04/03 10:36:05;;;;;;;;;58.25;47.50;;;;;8.52;40.28;102109.72;5018193;28;45310;-85
2022/04/03 10:39:04;;;;;;;;;4.75;2.75;;;;;8.60;39.00;102121.50;5019582;28;45540;-87
2022/04/03 10:41:31;;;;;;;;;5.00;5.00;;;;;8.65;39.17;102117.59;5005224;28;45522;-89
2022/04/03 10:44:14;;;;;;;;;5.50;4.00;;;;;8.71;39.27;102103.31;5027628;28;45877;-94
2022/04/03 10:47:04;;;;;;;;;3.00;3.00;;;;;8.71;39.27;102111.97;5007061;28;45359;-76
2022/04/03 10:49:41;;;;;;;;;5.00;4.50;;;;;8.75;38.99;102108.81;4982589;28;46759;-80
2022/04/03 10:52:10;;;;;;;;;3.75;3.50;;;;;8.83;38.68;102101.63;5022032;28;46308;-83
2022/04/03 10:54:49;;;;;;;;;7.00;5.00;;;;;8.85;38.94;102102.66;5023730;28;45507;-80
2022/04/03 10:57:40;;;;;;;;;5.50;3.00;;;;;8.89;39.38;102094.34;5018643;28;45406;-83
2022/04/03 11:00:14;;;;;;;;;3.50;3.00;;;;;8.94;39.17;102095.56;5016174;28;45616;-79
2022/04/03 11:02:57;;;;;;;;;12.50;8.50;;;;;9.04;39.63;102085.88;5019306;28;45827;-86
2022/04/03 11:05:25;;;;;;;;;11.25;6.00;;;;;9.17;39.73;102085.09;5019736;28;45299;-81
2022/04/03 11:08:18;;;;;;;;;7.75;5.75;;;;;9.39;37.78;102079.75;5005509;28;45579;-82
2022/04/03 11:11:06;;;;;;;;;2.75;2.75;;;;;9.44;37.50;102084.44;5022989;28;46370;-78
2022/04/03 11:13:31;;;;;;;;;6.75;5.00;;;;;9.36;38.15;102079.50;5022056;28;45976;-77
2022/04/03 11:16:03;;;;;;;;;5.25;5.25;;;;;9.33;38.09;102074.16;5015879;28;45447;-82
2022/04/03 11:18:39;;;;;;;;;10.25;8.00;;;;;9.36;38.75;102066.59;4998662;28;45575;-88
2022/04/03 11:21:11;;;;;;;;;11.00;8.00;;;;;9.45;38.65;102062.06;5006080;28;45509;-81
2022/04/03 11:23:43;;;;;;;;;4.75;4.75;;;;;9.59;38.26;102066.50;5016121;28;45379;-77
2022/04/03 11:26:09;;;;;;;;;6.50;5.25;;;;;9.67;38.12;102058.38;5017361;28;45432;-76
2022/04/03 11:28:34;;;;;;;;;5.75;4.00;;;;;9.72;38.41;102063.06;5016474;28;45347;-76
2022/04/03 11:31:01;;;;;;;;;6.50;4.75;;;;;9.74;37.65;102056.31;5013921;28;46237;-77
2022/04/03 11:33:29;;;;;;;;;6.00;6.00;;;;;9.72;37.99;102055.31;5015378;28;45906;-77
2022/04/03 11:35:56;;;;;;;;;4.50;4.50;;;;;9.72;37.70;102057.91;5013110;28;45503;-77
2022/04/03 11:38:22;;;;;;;;;5.00;4.25;;;;;9.68;37.55;102057.59;5012672;28;45606;-76
2022/04/03 11:40:48;;;;;;;;;4.00;4.00;;;;;9.65;37.65;102047.06;5014975;28;46207;-78
2022/04/03 11:43:18;;;;;;;;;7.50;3.50;;;;;9.60;37.38;102051.91;5014998;28;45468;-78
2022/04/03 11:45:59;;;;;;;;;4.50;4.50;;;;;9.54;37.22;102048.88;5013900;28;45247;-76
2022/04/03 11:48:31;;;;;;;;;3.00;3.00;;;;;9.48;37.26;102046.78;5012763;28;45569;-77
2022/04/03 11:51:06;;;;;;;;;3.50;3.50;;;;;9.51;37.47;102049.56;5017147;28;45997;-77
2022/04/03 11:53:32;;;;;;;;;7.75;3.00;;;;;9.59;37.44;102047.53;5016753;28;45447;-77
2022/04/03 11:56:16;;;;;;;;;8.00;5.50;;;;;9.70;37.50;102038.81;5032465;28;45395;-76
2022/04/03 11:58:49;;;;;;;;;7.25;5.00;;;;;9.88;37.94;102040.84;5018211;28;45745;-76
2022/04/03 12:01:28;;;;;;;;;5.00;5.00;;;;;9.97;37.85;102028.53;5009981;28;46957;-76
2022/04/03 12:04:02;;;;;;;;;4.75;4.75;;;;;10.05;37.61;102031.63;5020555;28;45785;-73
2022/04/03 12:06:31;;;;;;;;;7.75;5.25;;;;;10.13;37.73;102026.97;5015514;28;45321;-80
2022/04/03 12:08:58;;;;;;;;;5.00;5.00;;;;;10.27;37.49;102028.75;5015592;28;45563;-83
2022/04/03 12:11:30;;;;;;;;;4.00;4.00;;;;;10.44;36.55;102021.25;5014904;28;46001;-79
2022/04/03 12:14:01;;;;;;;;;5.00;3.00;;;;;10.50;36.53;102026.81;5018387;28;46041;-74
2022/04/03 12:16:32;;;;;;;;;6.25;4.50;;;;;10.50;36.69;102024.22;5015344;28;45348;-78
2022/04/03 12:19:06;;;;;;;;;7.00;5.00;;;;;10.49;36.29;102025.00;4997671;28;45463;-79
2022/04/03 12:21:49;;;;;;;;;7.25;4.00;;;;;10.48;36.87;102021.53;5007912;28;45458;-76
2022/04/03 12:24:19;;;;;;;;;5.50;4.25;;;;;10.60;36.45;102012.78;5014617;28;45341;-77
2022/04/03 12:26:52;;;;;;;;;3.50;3.00;;;;;10.68;36.80;102012.47;4995951;28;45739;-77
2022/04/03 12:29:19;;;;;;;;;6.00;5.50;;;;;10.79;36.61;102009.66;4997716;28;45515;-76
2022/04/03 12:32:03;;;;;;;;;5.75;4.00;;;;;10.86;36.48;102017.00;5032146;28;46311;-76
2022/04/03 12:34:35;;;;;;;;;4.25;3.75;;;;;10.94;36.63;102020.09;5002453;28;45449;-76
2022/04/03 12:37:03;;;;;;;;;6.00;6.00;;;;;10.97;36.24;102021.19;5015113;28;45301;-76
2022/04/03 12:39:33;;;;;;;;;4.00;4.00;;;;;11.02;36.22;102020.53;4999106;28;45577;-77
2022/04/03 12:42:10;;;;;;;;;6.25;5.00;;;;;11.16;35.79;102022.31;5026095;28;45527;-80
2022/04/03 12:44:51;;;;;;;;;5.25;4.00;;;;;11.35;35.10;102018.25;5014703;28;45408;-80
2022/04/03 12:47:30;;;;;;;;;5.50;4.00;;;;;11.42;35.29;102015.25;4995975;28;45413;-79
2022/04/03 12:50:11;;;;;;;;;7.00;7.00;;;;;11.39;35.41;102012.47;5013007;28;45348;-78
2022/04/03 12:52:51;;;;;;;;;4.25;4.25;;;;;11.46;35.41;102018.13;4995762;28;46617;-78
2022/04/03 12:55:29;;;;;;;;;5.00;5.00;;;;;11.63;35.08;102004.38;5013167;28;45481;-78
2022/04/03 13:00:51;;;;;;;;;5.00;4.00;;;;;12.05;33.87;101997.34;5021013;28;45517;-77
2022/04/03 13:03:39;;;;;;;;;4.50;4.00;;;;;12.06;33.62;101997.44;5013416;28;45452;-75
2022/04/03 13:06:28;;;;;;;;;6.50;6.50;;;;;12.11;34.01;101992.50;5014017;28;45217;-78
2022/04/03 13:09:07;;;;;;;;;6.50;6.00;;;;;12.13;33.83;102000.41;5014560;28;45521;-74
2022/04/03 13:11:36;;;;;;;;;8.25;6.25;;;;;12.06;33.80;101994.84;5000807;28;45310;-75
2022/04/03 13:14:19;;;;;;;;;4.50;4.00;;;;;12.01;34.08;101996.28;5015666;28;46164;-75
2022/04/03 13:16:49;;;;;;;;;4.50;4.50;;;;;11.98;33.97;101997.81;5018315;28;45321;-75
2022/04/03 13:19:17;;;;;;;;;7.00;6.00;;;;;11.91;33.80;101996.53;5017156;28;45466;-78
2022/04/03 13:21:44;;;;;;;;;5.00;5.00;;;;;11.84;33.57;101997.84;5021257;28;45494;-79
2022/04/03 13:24:11;;;;;;;;;5.50;5.50;;;;;11.70;33.35;101994.47;5017879;28;46045;-76
2022/04/03 13:26:37;;;;;;;;;8.00;6.00;;;;;11.70;34.01;101977.97;5019176;28;45515;-82
2022/04/03 13:29:07;;;;;;;;;6.25;5.00;;;;;11.85;34.04;101985.75;5022097;28;45587;-80
2022/04/03 13:31:34;;;;;;;;;5.00;5.00;;;;;11.92;34.20;101987.94;5017050;28;45568;-80
2022/04/03 13:34:01;;;;;;;;;4.50;4.00;;;;;11.86;33.21;101980.69;5015160;28;45484;-76
2022/04/03 13:36:26;;;;;;;;;6.00;5.00;;;;;11.82;33.29;101989.09;5021259;28;45487;-83
2022/04/03 13:38:52;;;;;;;;;5.00;5.00;;;;;11.91;33.22;101988.75;5018869;28;45450;-79
2022/04/03 13:41:19;;;;;;;;;6.00;4.00;;;;;12.10;33.26;101982.03;5023345;28;45476;-83
2022/04/03 13:43:45;;;;;;;;;5.25;5.25;;;;;12.38;33.44;101971.53;5017301;28;47173;-84
2022/04/03 13:46:11;;;;;;;;;7.25;5.00;;;;;12.66;33.14;101979.16;5019846;28;45518;-78
2022/04/03 13:48:39;;;;;;;;;6.25;6.25;;;;;12.74;33.04;101970.88;5029649;28;45809;-90
2022/04/03 13:51:12;;;;;;;;;6.50;6.00;;;;;12.65;33.28;101976.44;5018671;28;45562;-80
2022/04/03 13:53:39;;;;;;;;;8.00;6.75;;;;;12.57;33.41;101980.34;5016984;28;45439;-81
2022/04/03 13:56:06;;;;;;;;;6.25;5.75;;;;;12.42;34.01;101975.19;5027728;28;45349;-81
2022/04/03 13:58:33;;;;;;;;;12.75;11.25;;;;;12.59;34.24;101973.53;5038470;28;45472;-80
2022/04/03 14:01:01;;;;;;;;;6.00;5.00;;;;;12.70;33.56;101978.50;5019670;28;45229;-74
2022/04/03 14:03:28;;;;;;;;;5.75;5.75;;;;;12.76;33.25;101983.13;5017750;28;45872;-81
2022/04/03 14:05:54;;;;;;;;;7.00;5.75;;;;;12.72;33.36;101973.41;4998726;28;45482;-85
2022/04/03 14:08:20;;;;;;;;;6.50;6.50;;;;;12.60;33.10;101964.91;5010933;28;45523;-78
2022/04/03 14:10:49;;;;;;;;;8.00;7.00;;;;;12.41;33.04;101966.50;5012853;28;45533;-77
2022/04/03 14:13:19;;;;;;;;;7.25;6.50;;;;;12.20;33.78;101968.78;5009584;28;47023;-76
2022/04/03 14:15:47;;;;;;;;;6.50;5.50;;;;;12.27;34.02;101970.03;4984159;28;45373;-82
2022/04/03 14:18:15;;;;;;;;;8.75;7.00;;;;;12.36;33.86;101963.63;5017762;28;45589;-88
2022/04/03 14:20:41;;;;;;;;;7.00;6.00;;;;;12.71;33.54;101956.00;5019096;28;46923;-79
2022/04/03 14:23:07;;;;;;;;;4.25;4.00;;;;;13.01;33.11;101954.16;5019505;28;46377;-77
2022/04/03 14:25:33;;;;;;;;;9.00;6.00;;;;;13.10;32.59;101945.06;5041740;28;45518;-77
2022/04/03 14:27:59;;;;;;;;;7.00;6.00;;;;;13.04;32.85;101943.03;5028146;28;45578;-79
2022/04/03 14:30:27;;;;;;;;;6.00;6.00;;;;;12.90;33.33;101952.72;5015786;28;45691;-79
2022/04/03 14:32:53;;;;;;;;;7.75;6.75;;;;;12.77;33.35;101953.72;5015751;28;46482;-79
2022/04/03 14:35:19;;;;;;;;;7.50;7.50;;;;;12.66;33.52;101945.38;5016144;28;45283;-81
2022/04/03 14:37:46;;;;;;;;;5.00;5.00;;;;;12.64;33.75;101951.28;5016843;28;45506;-86
2022/04/03 14:40:13;;;;;;;;;7.50;5.50;;;;;12.60;32.76;101949.34;5016562;28;45878;-86
2022/04/03 14:42:40;;;;;;;;;5.00;5.00;;;;;12.64;32.79;101944.38;5015979;28;45475;-82
2022/04/03 14:45:06;;;;;;;;;7.25;7.25;;;;;12.77;33.23;101943.34;5019358;28;45392;-84
2022/04/03 14:47:35;;;;;;;;;8.75;6.00;;;;;12.83;33.14;101942.78;5002957;28;45424;-81
2022/04/03 14:50:04;;;;;;;;;6.75;6.00;;;;;12.76;33.34;101925.06;5014819;28;45749;-81
2022/04/03 14:52:30;;;;;;;;;5.50;4.50;;;;;12.74;33.30;101937.09;5014260;28;46578;-81
2022/04/03 14:54:57;;;;;;;;;6.50;6.25;;;;;12.74;33.71;101926.69;5015950;28;45628;-79
2022/04/03 14:57:23;;;;;;;;;9.50;8.00;;;;;12.76;33.35;101932.88;5017054;28;45357;-82
2022/04/03 14:59:49;;;;;;;;;8.75;6.50;;;;;12.80;32.93;101934.81;4999810;28;45551;-81
2022/04/03 15:02:15;;;;;;;;;7.00;7.00;;;;;12.82;32.91;101939.28;5017255;28;45460;-80
2022/04/03 15:04:40;;;;;;;;;8.00;7.00;;;;;12.82;32.82;101941.00;5016904;28;45469;-79
2022/04/03 15:07:10;;;;;;;;;7.00;6.00;;;;;12.74;32.91;101937.09;5016698;28;45377;-78
2022/04/03 15:09:37;;;;;;;;;8.25;8.00;;;;;12.52;33.27;101942.03;5016697;28;45300;-80
2022/04/03 15:12:05;;;;;;;;;10.25;7.75;;;;;12.35;33.95;101938.50;5016709;28;46346;-82
2022/04/03 15:14:32;;;;;;;;;11.25;10.00;;;;;12.21;34.03;101948.06;5016736;28;45939;-78
2022/04/03 15:16:59;;;;;;;;;7.75;7.75;;;;;12.11;33.79;101950.09;5016563;28;45331;-77
2022/04/03 15:19:26;;;;;;;;;12.00;9.25;;;;;11.93;33.82;101948.19;5016836;28;45482;-77
2022/04/03 15:21:52;;;;;;;;;10.50;10.50;;;;;11.86;33.38;101959.00;5016451;28;46248;-76
2022/04/03 15:24:19;;;;;;;;;12.50;9.00;;;;;11.72;33.75;101956.50;5016881;28;45714;-81
2022/04/03 15:26:47;;;;;;;;;11.00;11.00;;;;;11.68;34.15;101951.03;5016208;28;45607;-77
2022/04/03 15:29:22;;;;;;;;;10.25;10.25;;;;;11.68;34.15;101953.66;5017196;28;45369;-78
2022/04/03 15:31:53;;;;;;;;;9.50;9.50;;;;;11.84;34.42;101948.56;5016394;28;45343;-80
2022/04/03 15:34:23;;;;;;;;;12.00;10.00;;;;;12.18;34.50;101944.41;5016786;28;45483;-82
2022/04/03 15:36:55;;;;;;;;;10.00;10.00;;;;;12.50;34.32;101945.31;5015947;28;45388;-82
2022/04/03 15:39:21;;;;;;;;;10.00;8.75;;;;;12.74;33.81;101937.09;5016539;28;45522;-79
2022/04/03 15:41:47;;;;;;;;;10.00;10.00;;;;;12.66;33.69;101940.19;5016150;28;45438;-81
2022/04/03 15:44:13;;;;;;;;;11.50;11.50;;;;;12.49;33.45;101944.44;4998907;28;45424;-82
2022/04/03 15:46:39;;;;;;;;;13.25;11.75;;;;;12.21;33.72;101947.19;5017174;28;45516;-82
2022/04/03 15:49:05;;;;;;;;;15.25;14.25;;;;;12.00;34.39;101944.25;4999393;28;45314;-84
2022/04/03 15:51:32;;;;;;;;;14.25;13.00;;;;;11.87;34.85;101942.63;5016488;28;46234;-80
2022/04/03 15:53:59;;;;;;;;;13.75;13.50;;;;;11.81;35.21;101944.91;4998553;28;45571;-82
2022/04/03 15:56:26;;;;;;;;;13.00;13.00;;;;;11.72;35.14;101943.53;5016674;28;45475;-81
2022/04/03 15:58:52;;;;;;;;;12.75;12.75;;;;;11.67;35.70;101938.88;5015972;28;45597;-82
2022/04/03 16:01:19;;;;;;;;;13.25;11.75;;;;;11.66;35.47;101934.53;5016125;28;46008;-79
2022/04/03 16:03:46;;;;;;;;;14.25;14.25;;;;;11.68;35.55;101931.22;5003198;28;45773;-79
2022/04/03 16:06:12;;;;;;;;;15.75;14.00;;;;;11.77;35.18;101926.53;5018167;28;45387;-79
2022/04/03 16:08:38;;;;;;;;;15.75;15.50;;;;;11.83;34.66;101933.78;4989204;28;45522;-84
2022/04/03 16:11:04;;;;;;;;;14.75;12.75;;;;;11.88;34.46;101928.88;5016896;28;45569;-83
2022/04/03 16:13:31;;;;;;;;;15.00;12.25;;;;;11.93;34.39;101928.31;5035071;28;45419;-90
2022/04/03 16:15:57;;;;;;;;;13.25;12.75;;;;;12.03;34.38;101927.19;5018475;28;45882;-85
2022/04/03 16:18:25;;;;;;;;;15.50;14.00;;;;;12.19;34.26;101935.81;5022347;28;45469;-80
2022/04/03 16:20:52;;;;;;;;;10.00;10.00;;;;;12.37;34.44;101930.78;5022387;28;46308;-76
2022/04/03 16:23:23;;;;;;;;;14.25;13.00;;;;;12.58;33.79;101922.38;5004733;28;45884;-83
2022/04/03 16:25:49;;;;;;;;;13.50;13.50;;;;;12.57;33.35;101934.47;5018432;28;45383;-85
2022/04/03 16:28:16;;;;;;;;;13.75;13.25;;;;;12.44;33.66;101934.59;5016663;28;45637;-85
2022/04/03 16:30:42;;;;;;;;;13.00;12.50;;;;;12.33;34.39;101929.72;4998968;28;46979;-80
2022/04/03 16:33:08;;;;;;;;;13.50;13.50;;;;;12.27;34.42;101938.88;5022598;28;45341;-76
2022/04/03 16:35:34;;;;;;;;;14.00;13.50;;;;;12.32;34.55;101932.22;5027572;28;45459;-83
2022/04/03 16:38:00;;;;;;;;;13.25;13.00;;;;;12.44;34.70;101932.00;5016142;28;45421;-77
2022/04/03 16:40:27;;;;;;;;;15.50;15.50;;;;;12.62;34.77;101933.00;5024999;28;46410;-85
2022/04/03 16:42:52;;;;;;;;;17.25;16.50;;;;;12.75;34.39;101929.38;5006475;28;46029;-88
2022/04/03 16:45:18;;;;;;;;;17.00;15.75;;;;;12.75;34.18;101926.75;5015915;28;45456;-85
2022/04/03 16:47:44;;;;;;;;;14.00;14.00;;;;;12.65;34.63;101930.59;5033382;28;45361;-80
2022/04/03 16:50:10;;;;;;;;;19.25;16.50;;;;;12.57;34.54;101933.56;5025249;28;45251;-81
2022/04/03 16:52:38;;;;;;;;;14.00;14.00;;;;;12.48;34.73;101929.66;5023612;28;45455;-81
2022/04/03 16:55:04;;;;;;;;;16.00;16.00;;;;;12.44;34.71;101934.59;5014373;28;45306;-80
2022/04/03 16:57:32;;;;;;;;;15.50;15.50;;;;;12.36;35.17;101942.84;5001567;28;45691;-80
2022/04/03 16:59:58;;;;;;;;;15.50;15.00;;;;;12.25;35.00;101941.38;5017504;28;45605;-81
2022/04/03 17:02:24;;;;;;;;;17.75;15.00;;;;;12.11;35.17;101944.91;5019266;28;45394;-80
2022/04/03 17:04:49;;;;;;;;;13.00;13.00;;;;;12.03;35.08;101950.56;5028205;28;45535;-78
2022/04/03 17:07:15;;;;;;;;;10.25;10.00;;;;;11.94;34.97;101944.78;5040493;28;45332;-79
2022/04/03 17:09:40;;;;;;;;;15.25;15.25;;;;;11.88;35.31;101942.72;5015525;28;46619;-80
2022/04/03 17:12:08;;;;;;;;;18.00;16.75;;;;;11.85;35.25;101945.16;5017659;28;45226;-76
2022/04/03 17:14:35;;;;;;;;;14.75;14.25;;;;;11.84;35.61;101942.47;5010582;28;45465;-78
2022/04/03 17:17:00;;;;;;;;;17.25;16.75;;;;;11.82;35.56;101944.09;5039390;28;45435;-82
2022/04/03 17:19:27;;;;;;;;;19.75;19.00;;;;;11.84;35.54;101956.34;5030203;28;45996;-81
2022/04/03 17:21:53;;;;;;;;;17.00;15.50;;;;;11.88;35.51;101947.91;4997079;28;46028;-79
2022/04/03 17:24:19;;;;;;;;;13.00;13.00;;;;;11.88;35.88;101950.50;5001027;28;45363;-76
2022/04/03 17:26:45;;;;;;;;;15.00;15.00;;;;;11.93;35.74;101943.91;5009727;28;45436;-77
2022/04/03 17:29:13;;;;;;;;;17.00;16.50;;;;;11.93;35.98;101950.81;4996406;28;46300;-80
2022/04/03 17:31:42;;;;;;;;;14.75;13.00;;;;;11.90;35.99;101955.81;5032991;28;46402;-78
2022/04/03 17:34:11;;;;;;;;;14.75;14.25;;;;;11.90;35.51;101951.50;5010991;28;45443;-77
2022/04/03 17:36:37;;;;;;;;;15.50;15.25;;;;;11.93;34.50;101951.69;5019446;28;45217;-78
2022/04/03 17:39:08;;;;;;;;;15.75;13.25;;;;;11.91;34.71;101948.09;5018385;28;46034;-77
2022/04/03 17:41:41;;;;;;;;;14.25;13.00;;;;;11.89;34.85;101951.41;5018080;28;45884;-79
2022/04/03 17:44:09;;;;;;;;;14.25;12.75;;;;;11.84;34.64;101953.75;5019007;28;45733;-77
2022/04/03 17:46:35;;;;;;;;;13.25;13.25;;;;;11.75;34.69;101958.41;5021802;28;45595;-78
2022/04/03 17:49:02;;;;;;;;;15.25;14.00;;;;;11.68;34.92;101951.03;5008460;28;47258;-79
2022/04/03 17:51:28;;;;;;;;;14.50;12.50;;;;;11.63;35.19;101952.50;5000431;28;45458;-79
2022/04/03 17:53:56;;;;;;;;;16.50;14.75;;;;;11.58;35.47;101949.63;5017611;28;45272;-80
2022/04/03 17:56:22;;;;;;;;;14.00;13.50;;;;;11.51;35.89;101958.75;5027387;28;45729;-76
2022/04/03 17:58:48;;;;;;;;;16.75;16.75;;;;;11.48;35.85;101961.16;5030877;28;45884;-77
2022/04/03 18:01:14;;;;;;;;;16.50;14.75;;;;;11.38;36.04;101951.94;5017478;28;46004;-76
2022/04/03 18:03:40;;;;;;;;;17.00;17.00;;;;;11.34;36.18;101954.25;5022495;28;45275;-75
2022/04/03 18:06:06;;;;;;;;;19.00;16.50;;;;;11.29;36.38;101951.34;5031153;28;45360;-75
2022/04/03 18:08:31;;;;;;;;;15.00;14.00;;;;;11.24;36.40;101955.38;5035623;28;45249;-73
2022/04/03 18:11:15;;;;;;;;;15.00;14.00;;;;;11.18;36.35;101952.41;5017610;28;45306;-75
2022/04/03 18:13:43;;;;;;;;;17.75;15.75;;;;;11.12;36.65;101959.03;5017805;28;45313;-73
2022/04/03 18:16:11;;;;;;;;;22.00;18.75;;;;;11.06;36.64;101965.53;5014108;28;45578;-73
2022/04/03 18:18:37;;;;;;;;;14.50;14.50;;;;;10.99;36.87;101962.56;5020880;28;46135;-74
2022/04/03 18:21:05;;;;;;;;;19.75;17.50;;;;;10.96;37.11;101964.97;5025789;28;45271;-76
2022/04/03 18:23:35;;;;;;;;;20.50;17.25;;;;;10.95;37.26;101967.47;5033792;28;45435;-74
2022/04/03 18:26:01;;;;;;;;;15.75;15.75;;;;;10.93;37.38;101971.66;5037023;28;45629;-76
2022/04/03 18:28:28;;;;;;;;;18.25;16.50;;;;;10.92;37.34;101968.16;5045115;28;46271;-78
2022/04/03 18:30:55;;;;;;;;;23.50;18.00;;;;;10.89;37.36;101973.16;5019349;28;46033;-74
2022/04/03 18:33:22;;;;;;;;;14.25;13.00;;;;;10.87;37.28;101971.25;5033634;28;45354;-75
2022/04/03 18:35:48;;;;;;;;;16.75;16.75;;;;;10.84;37.57;101970.28;5035425;28;45317;-75
2022/04/03 18:38:15;;;;;;;;;19.00;17.75;;;;;10.83;37.67;101983.13;5024720;28;46482;-75
2022/04/03 18:40:42;;;;;;;;;21.25;18.75;;;;;10.80;37.80;101975.16;5020325;28;45579;-76
2022/04/03 18:43:07;;;;;;;;;19.25;19.25;;;;;10.79;37.77;101981.16;4999901;28;45382;-75
2022/04/03 18:45:33;;;;;;;;;17.75;16.50;;;;;10.77;37.98;101983.63;5031750;28;45543;-74
2022/04/03 18:48:00;;;;;;;;;20.75;17.50;;;;;10.71;37.85;101983.25;5024322;28;46139;-75
2022/04/03 18:50:30;;;;;;;;;19.25;19.00;;;;;10.70;38.13;101978.88;5021910;28;45550;-75
2022/04/03 18:53:02;;;;;;;;;21.00;19.75;;;;;10.68;38.10;101983.97;5017014;28;45420;-75
2022/04/03 18:55:28;;;;;;;;;27.75;23.00;;;;;10.66;38.13;101984.66;5017294;28;45333;-76
2022/04/03 18:57:57;;;;;;;;;20.00;19.00;;;;;10.60;38.39;101990.34;5023831;28;45827;-75
2022/04/03 19:00:22;;;;;;;;;19.75;18.50;;;;;10.56;37.93;101990.06;5021564;28;45376;-74
2022/04/03 19:02:49;;;;;;;;;18.25;17.75;;;;;10.49;38.41;101991.34;5012391;28;45420;-75
2022/04/03 19:05:15;;;;;;;;;20.25;17.00;;;;;10.47;38.50;101992.97;4999279;28;45418;-75
2022/04/03 19:07:40;;;;;;;;;20.50;19.75;;;;;10.41;38.46;101990.88;4999032;28;47828;-72
2022/04/03 19:10:08;;;;;;;;;22.25;20.00;;;;;10.39;38.31;101997.66;5016448;28;45250;-75
2022/04/03 19:12:35;;;;;;;;;22.00;20.25;;;;;10.32;38.76;101995.41;5015910;28;45596;-76
2022/04/03 19:15:03;;;;;;;;;19.25;18.50;;;;;10.30;38.41;101997.91;5016802;28;45372;-75
2022/04/03 19:17:31;;;;;;;;;22.75;19.50;;;;;10.27;38.84;101995.09;5016460;28;46476;-76
2022/04/03 19:19:57;;;;;;;;;20.25;18.50;;;;;10.23;39.15;101988.84;5016506;28;45330;-76
2022/04/03 19:22:22;;;;;;;;;22.50;21.00;;;;;10.21;39.33;101994.72;5022494;28;45550;-76
2022/04/03 19:24:48;;;;;;;;;23.75;20.00;;;;;10.18;39.46;102000.59;5018914;28;45454;-76
2022/04/03 19:27:14;;;;;;;;;19.75;18.50;;;;;10.13;39.08;102007.16;5017139;28;46090;-74
2022/04/03 19:29:39;;;;;;;;;20.00;20.00;;;;;10.12;39.39;102001.88;5017556;28;45207;-76
2022/04/03 19:32:07;;;;;;;;;21.75;21.00;;;;;10.11;39.55;101998.38;5017501;28;45384;-76
2022/04/03 19:34:34;;;;;;;;;21.75;21.75;;;;;10.10;39.30;102004.34;5019012;28;45592;-75
2022/04/03 19:37:01;;;;;;;;;20.25;19.75;;;;;10.10;39.57;102011.22;5016238;28;45473;-76
2022/04/03 19:39:27;;;;;;;;;21.00;19.75;;;;;10.11;39.54;102010.44;5016526;28;45854;-74
2022/04/03 19:41:58;;;;;;;;;20.00;19.50;;;;;10.12;39.37;102010.53;4997999;28;45325;-75
2022/04/03 19:44:24;;;;;;;;;21.25;18.00;;;;;10.10;39.70;102011.22;4999762;28;45466;-73
2022/04/03 19:46:50;;;;;;;;;20.75;19.75;;;;;10.07;39.61;102020.56;5015999;28;45421;-75
2022/04/03 19:49:16;;;;;;;;;22.25;21.00;;;;;10.04;39.73;102019.47;5015795;28;45483;-73
2022/04/03 19:51:45;;;;;;;;;21.50;18.75;;;;;10.00;39.70;102020.97;5017093;28;45446;-73
2022/04/03 19:54:11;;;;;;;;;24.25;23.00;;;;;9.99;40.18;102028.66;5024155;28;46758;-71
2022/04/03 19:56:38;;;;;;;;;24.75;20.25;;;;;9.99;40.36;102028.66;5022479;28;46005;-72
2022/04/03 19:59:04;;;;;;;;;19.50;19.25;;;;;9.97;40.68;102025.94;5026104;28;45273;-72